createdAt,value
2017-11-08T00:02:12.235Z,9.30
2017-11-08T00:04:43.093Z,9.30
2017-11-08T00:07:11.367Z,9.30
2017-11-08T00:09:39.647Z,9.30
2017-11-08T00:12:07.925Z,9.20
2017-11-08T00:14:36.195Z,9.30
2017-11-08T00:17:04.458Z,9.20
2017-11-08T00:19:32.731Z,9.20
2017-11-08T00:22:02.953Z,9.20
2017-11-08T00:24:31.222Z,9.20
2017-11-08T00:26:59.549Z,9.30
2017-11-08T00:29:27.806Z,9.30
2017-11-08T00:31:56.075Z,9.20
2017-11-08T00:34:24.332Z,9.10
2017-11-08T00:36:52.648Z,9.00
2017-11-08T00:39:20.906Z,9.10
2017-11-08T00:41:49.219Z,9.30
2017-11-08T00:44:17.476Z,9.30
2017-11-08T00:46:45.767Z,9.40
2017-11-08T00:49:14.150Z,9.40
2017-11-08T00:51:42.430Z,9.40
2017-11-08T00:54:12.606Z,9.40
2017-11-08T00:56:40.918Z,9.40
2017-11-08T00:59:09.182Z,9.40
2017-11-08T01:01:37.465Z,9.50
2017-11-08T01:04:05.728Z,9.50
2017-11-08T01:06:34.025Z,9.50
2017-11-08T01:09:02.295Z,9.50
2017-11-08T01:11:30.564Z,9.40
2017-11-08T01:13:58.832Z,9.40
2017-11-08T01:16:27.103Z,9.50
2017-11-08T01:18:55.374Z,9.50
2017-11-08T01:21:23.660Z,9.50
2017-11-08T01:23:51.930Z,9.60
2017-11-08T01:26:20.233Z,9.50
2017-11-08T01:28:48.484Z,9.40
2017-11-08T01:31:16.760Z,9.40
2017-11-08T01:33:45.078Z,9.40
2017-11-08T01:36:13.457Z,9.20
2017-11-08T01:38:42.645Z,9.30
2017-11-08T01:41:16.638Z,9.20
2017-11-08T01:43:44.932Z,9.20
2017-11-08T01:46:17.231Z,9.00
2017-11-08T01:48:45.661Z,9.00
2017-11-08T01:51:14.252Z,9.00
2017-11-08T01:53:42.563Z,9.00
2017-11-08T01:56:12.376Z,9.00
2017-11-08T01:58:42.145Z,9.00
2017-11-08T02:01:10.432Z,9.00
2017-11-08T02:03:38.684Z,9.00
2017-11-08T02:06:07.725Z,9.00
2017-11-08T02:08:35.979Z,9.00
2017-11-08T02:11:04.256Z,9.00
2017-11-08T02:13:32.561Z,8.80
2017-11-08T02:16:00.845Z,8.70
2017-11-08T02:18:29.117Z,8.60
2017-11-08T02:20:57.388Z,8.60
2017-11-08T02:23:25.875Z,8.60
2017-11-08T02:25:54.119Z,8.60
2017-11-08T02:28:22.434Z,8.60
2017-11-08T02:30:50.704Z,8.50
2017-11-08T02:33:19.079Z,8.30
2017-11-08T02:35:47.352Z,8.40
2017-11-08T02:38:15.747Z,8.40
2017-11-08T02:40:44.025Z,8.40
2017-11-08T02:43:12.301Z,8.30
2017-11-08T02:45:41.341Z,8.50
2017-11-08T02:48:09.616Z,8.60
2017-11-08T02:50:37.885Z,8.70
2017-11-08T02:53:06.928Z,8.40
2017-11-08T02:55:35.192Z,8.40
2017-11-08T02:58:03.473Z,8.40
2017-11-08T03:00:31.737Z,8.40
2017-11-08T03:03:03.018Z,8.40
2017-11-08T03:05:31.296Z,8.50
2017-11-08T03:07:59.781Z,8.50
2017-11-08T03:10:28.891Z,8.40
2017-11-08T03:12:57.540Z,8.40
2017-11-08T03:15:25.821Z,8.40
2017-11-08T03:17:54.113Z,8.50
2017-11-08T03:20:22.407Z,8.50
2017-11-08T03:22:50.696Z,8.50
2017-11-08T03:25:18.958Z,8.50
2017-11-08T03:27:47.245Z,8.50
2017-11-08T03:30:16.323Z,8.50
2017-11-08T03:32:44.609Z,8.50
2017-11-08T03:35:12.869Z,8.60
2017-11-08T03:37:41.253Z,8.70
2017-11-08T03:40:09.548Z,8.70
2017-11-08T03:42:37.898Z,8.60
2017-11-08T03:45:06.532Z,8.60
2017-11-08T03:47:35.568Z,8.80
2017-11-08T03:50:03.833Z,8.80
2017-11-08T03:52:32.117Z,8.90
2017-11-08T03:55:00.408Z,9.00
2017-11-08T03:57:28.700Z,9.10
2017-11-08T03:59:57.093Z,9.20
2017-11-08T04:02:25.377Z,9.20
2017-11-08T04:04:53.626Z,9.20
2017-11-08T04:07:22.003Z,9.30
2017-11-08T04:09:50.315Z,9.40
2017-11-08T04:12:18.585Z,9.50
2017-11-08T04:14:46.866Z,9.40
2017-11-08T04:17:15.125Z,9.30
2017-11-08T04:19:43.404Z,9.30
2017-11-08T04:22:13.176Z,9.20
2017-11-08T04:24:41.767Z,9.20
2017-11-08T04:27:10.029Z,9.30
2017-11-08T04:29:38.337Z,9.40
2017-11-08T04:32:06.609Z,9.30
2017-11-08T04:34:34.895Z,9.30
2017-11-08T04:37:03.168Z,9.30
2017-11-08T04:39:31.445Z,9.10
2017-11-08T04:41:59.712Z,9.20
2017-11-08T04:44:28.107Z,9.40
2017-11-08T04:46:56.396Z,9.40
2017-11-08T04:49:25.433Z,9.40
2017-11-08T04:51:53.684Z,9.40
2017-11-08T04:54:22.750Z,9.40
2017-11-08T04:56:51.022Z,9.40
2017-11-08T04:59:19.298Z,9.60
2017-11-08T05:01:47.564Z,9.70
2017-11-08T05:04:15.852Z,9.70
2017-11-08T05:06:44.116Z,9.70
2017-11-08T05:09:12.407Z,9.60
2017-11-08T05:11:40.683Z,9.50
2017-11-08T05:14:08.956Z,9.50
2017-11-08T05:16:37.223Z,9.40
2017-11-08T05:19:05.519Z,9.30
2017-11-08T05:21:33.768Z,9.40
2017-11-08T05:24:02.044Z,9.30
2017-11-08T05:26:30.354Z,9.20
2017-11-08T05:28:58.712Z,9.20
2017-11-08T05:31:26.973Z,9.20
2017-11-08T05:33:55.300Z,9.00
2017-11-08T05:36:23.564Z,9.00
2017-11-08T05:38:51.949Z,8.80
2017-11-08T05:41:20.317Z,8.90
2017-11-08T05:43:48.695Z,8.90
2017-11-08T05:46:16.969Z,8.80
2017-11-08T05:48:45.246Z,8.70
2017-11-08T05:51:13.525Z,8.80
2017-11-08T05:53:41.834Z,8.70
2017-11-08T05:56:10.183Z,8.60
2017-11-08T05:58:38.473Z,8.50
2017-11-08T06:01:06.756Z,8.50
2017-11-08T06:03:35.061Z,8.40
2017-11-08T06:06:04.102Z,8.30
2017-11-08T06:08:32.390Z,8.20
2017-11-08T06:11:00.662Z,8.30
2017-11-08T06:13:28.936Z,8.30
2017-11-08T06:15:57.216Z,8.30
2017-11-08T06:18:25.487Z,8.30
2017-11-08T06:20:53.765Z,8.30
2017-11-08T06:23:22.020Z,8.30
2017-11-08T06:25:50.335Z,8.20
2017-11-08T06:28:18.594Z,8.30
2017-11-08T06:30:46.871Z,8.40
2017-11-08T06:33:15.158Z,8.30
2017-11-08T06:35:43.444Z,8.30
2017-11-08T06:38:11.700Z,8.30
2017-11-08T06:40:39.998Z,8.30
2017-11-08T06:43:08.268Z,8.30
2017-11-08T06:45:36.560Z,8.30
2017-11-08T06:48:06.348Z,8.00
2017-11-08T06:50:37.196Z,8.00
2017-11-08T06:53:06.365Z,8.00
2017-11-08T06:55:35.606Z,8.00
2017-11-08T06:58:03.873Z,8.00
2017-11-08T07:00:32.152Z,7.90
2017-11-08T07:03:00.403Z,7.90
2017-11-08T07:05:28.714Z,8.00
2017-11-08T07:07:57.085Z,7.90
2017-11-08T07:10:26.202Z,7.90
2017-11-08T07:12:55.234Z,7.90
2017-11-08T07:15:23.562Z,7.90
2017-11-08T07:17:51.930Z,8.00
2017-11-08T07:20:20.201Z,8.00
2017-11-08T07:22:48.490Z,8.20
2017-11-08T07:25:16.764Z,8.30
2017-11-08T07:27:45.021Z,8.20
2017-11-08T07:30:13.318Z,8.30
2017-11-08T07:32:41.564Z,8.20
2017-11-08T07:35:09.840Z,8.10
2017-11-08T07:37:38.105Z,8.10
2017-11-08T07:40:06.423Z,8.10
2017-11-08T07:42:34.668Z,8.10
2017-11-08T07:45:02.945Z,7.90
2017-11-08T07:47:31.222Z,7.90
2017-11-08T07:49:59.499Z,7.90
2017-11-08T07:52:27.777Z,7.90
2017-11-08T07:55:01.956Z,7.80
2017-11-08T07:57:31.088Z,7.90
2017-11-08T07:59:59.371Z,7.90
2017-11-08T08:02:27.634Z,8.00
2017-11-08T08:04:55.908Z,8.00
2017-11-08T08:07:25.987Z,8.10
2017-11-08T08:09:54.256Z,8.10
2017-11-08T08:12:26.382Z,8.10
2017-11-08T08:14:54.670Z,8.20
2017-11-08T08:17:22.948Z,8.20
2017-11-08T08:19:51.349Z,8.10
2017-11-08T08:22:19.610Z,8.20
2017-11-08T08:24:47.883Z,8.20
2017-11-08T08:27:16.144Z,8.20
2017-11-08T08:29:44.458Z,8.20
2017-11-08T08:32:14.252Z,8.40
2017-11-08T08:34:42.532Z,8.40
2017-11-08T08:37:10.855Z,8.60
2017-11-08T08:39:39.143Z,8.70
2017-11-08T08:42:08.160Z,8.70
2017-11-08T08:44:36.463Z,8.70
2017-11-08T08:47:04.751Z,8.70
2017-11-08T08:49:33.022Z,8.70
2017-11-08T08:52:01.405Z,8.60
2017-11-08T08:54:29.785Z,8.70
2017-11-08T08:56:58.096Z,8.60
2017-11-08T08:59:27.362Z,8.70
2017-11-08T09:01:57.156Z,8.80
2017-11-08T09:04:25.558Z,8.80
2017-11-08T09:06:53.936Z,8.90
2017-11-08T09:09:22.212Z,8.90
2017-11-08T09:11:50.577Z,9.00
2017-11-08T09:14:18.828Z,9.10
2017-11-08T09:16:47.118Z,9.20
2017-11-08T09:19:15.422Z,9.00
2017-11-08T09:21:43.711Z,8.90
2017-11-08T09:24:13.485Z,8.80
2017-11-08T09:26:44.720Z,8.80
2017-11-08T09:29:17.822Z,8.80
2017-11-08T09:31:46.101Z,8.90
2017-11-08T09:34:14.344Z,9.10
2017-11-08T09:36:43.500Z,9.60
2017-11-08T09:39:12.700Z,9.60
2017-11-08T09:41:40.975Z,9.70
2017-11-08T09:44:09.251Z,9.90
2017-11-08T09:46:37.734Z,10.20
2017-11-08T09:49:08.433Z,10.20
2017-11-08T09:51:36.720Z,10.30
2017-11-08T09:54:08.618Z,10.40
2017-11-08T09:56:36.945Z,10.10
2017-11-08T09:59:05.262Z,10.20
2017-11-08T10:01:40.028Z,10.20
2017-11-08T10:04:08.442Z,10.20
2017-11-08T10:06:40.378Z,10.30
2017-11-08T10:09:08.690Z,10.20
2017-11-08T10:11:38.871Z,10.20
2017-11-08T10:14:07.129Z,10.10
2017-11-08T10:16:35.433Z,10.10
2017-11-08T10:19:03.737Z,9.90
2017-11-08T10:21:32.024Z,9.80
2017-11-08T10:24:00.407Z,9.70
2017-11-08T10:26:28.808Z,9.80
2017-11-08T10:28:57.837Z,10.10
2017-11-08T10:31:26.116Z,10.00
2017-11-08T10:33:54.432Z,10.10
2017-11-08T10:36:22.799Z,10.10
2017-11-08T10:38:51.825Z,10.20
2017-11-08T10:41:20.876Z,10.50
2017-11-08T10:43:49.132Z,10.40
2017-11-08T10:46:17.606Z,10.60
2017-11-08T10:48:45.865Z,10.50
2017-11-08T10:51:14.149Z,10.90
2017-11-08T10:53:42.450Z,11.00
2017-11-08T10:56:10.742Z,10.90
2017-11-08T10:58:39.787Z,11.00
2017-11-08T11:01:08.100Z,11.00
2017-11-08T11:03:36.367Z,10.90
2017-11-08T11:06:04.663Z,10.70
2017-11-08T11:08:32.939Z,10.80
2017-11-08T11:11:01.231Z,10.90
2017-11-08T11:13:29.492Z,10.80
2017-11-08T11:15:57.782Z,10.90
2017-11-08T11:18:26.817Z,11.20
2017-11-08T11:20:55.150Z,11.20
2017-11-08T11:23:24.188Z,11.40
2017-11-08T11:25:52.454Z,11.40
2017-11-08T11:28:20.740Z,11.20
2017-11-08T11:30:51.877Z,11.20
2017-11-08T11:33:20.166Z,11.20
2017-11-08T11:35:48.437Z,11.10
2017-11-08T11:38:18.531Z,11.20
2017-11-08T11:40:46.877Z,11.40
2017-11-08T11:43:15.175Z,11.40
2017-11-08T11:45:44.943Z,11.50
2017-11-08T11:48:17.240Z,11.50
2017-11-08T11:50:45.516Z,11.30
2017-11-08T11:53:13.922Z,11.40
2017-11-08T11:55:42.201Z,11.50
2017-11-08T11:58:10.555Z,11.40
2017-11-08T12:00:38.826Z,11.50
2017-11-08T12:03:07.112Z,11.60
2017-11-08T12:05:36.382Z,11.40
2017-11-08T12:08:04.695Z,11.20
2017-11-08T12:10:32.991Z,11.30
2017-11-08T12:13:02.108Z,11.20
2017-11-08T12:15:30.424Z,11.20
2017-11-08T12:17:58.764Z,11.20
2017-11-08T12:20:28.843Z,11.00
2017-11-08T12:22:57.169Z,11.00
2017-11-08T12:25:25.548Z,11.00
2017-11-08T12:27:53.862Z,11.10
2017-11-08T12:30:22.135Z,11.10
2017-11-08T12:32:50.617Z,11.10
2017-11-08T12:35:18.908Z,11.10
2017-11-08T12:37:47.214Z,11.20
2017-11-08T12:40:21.159Z,11.00
2017-11-08T12:42:50.228Z,11.00
2017-11-08T12:45:19.378Z,11.00
2017-11-08T12:47:47.750Z,11.00
2017-11-08T12:50:16.078Z,11.10
2017-11-08T12:52:45.263Z,11.00
2017-11-08T12:55:13.572Z,11.00
2017-11-08T12:57:45.776Z,11.00
2017-11-08T13:00:14.070Z,10.90
2017-11-08T13:02:42.369Z,10.80
2017-11-08T13:05:11.449Z,10.90
2017-11-08T13:07:40.526Z,11.00
2017-11-08T13:10:08.962Z,11.00
2017-11-08T13:12:37.283Z,11.10
2017-11-08T13:15:05.563Z,11.10
2017-11-08T13:17:33.857Z,11.20
2017-11-08T13:20:02.200Z,11.10
2017-11-08T13:22:30.499Z,11.10
2017-11-08T13:24:58.924Z,11.10
2017-11-08T13:27:27.948Z,11.20
2017-11-08T13:29:56.244Z,11.20
2017-11-08T13:32:24.632Z,11.20
2017-11-08T13:34:53.016Z,11.30
2017-11-08T13:37:21.284Z,11.40
2017-11-08T13:39:51.499Z,11.20
2017-11-08T13:42:20.704Z,11.30
2017-11-08T13:44:48.992Z,11.30
2017-11-08T13:47:19.054Z,11.40
2017-11-08T13:49:48.096Z,11.50
2017-11-08T13:52:16.359Z,11.50
2017-11-08T13:54:44.740Z,11.50
2017-11-08T13:57:12.997Z,11.30
2017-11-08T13:59:41.301Z,11.00
2017-11-08T14:02:09.590Z,11.00
2017-11-08T14:04:37.874Z,11.10
2017-11-08T14:07:06.148Z,11.10
2017-11-08T14:09:34.434Z,11.10
2017-11-08T14:12:02.701Z,11.10
2017-11-08T14:14:30.995Z,10.80
2017-11-08T14:16:59.256Z,10.40
2017-11-08T14:19:27.633Z,10.40
2017-11-08T14:21:56.014Z,10.40
2017-11-08T14:24:24.394Z,10.40
2017-11-08T14:26:52.696Z,10.30
2017-11-08T14:29:20.991Z,10.30
2017-11-08T14:31:50.041Z,10.10
2017-11-08T14:34:18.326Z,10.10
2017-11-08T14:36:48.578Z,10.10
2017-11-08T14:39:17.712Z,9.80
2017-11-08T14:41:50.824Z,9.80
2017-11-08T14:44:19.213Z,9.80
2017-11-08T14:46:47.523Z,9.80
2017-11-08T14:49:15.877Z,9.60
2017-11-08T14:51:44.147Z,9.60
2017-11-08T14:54:13.458Z,9.60
2017-11-08T14:56:41.743Z,9.60
2017-11-08T14:59:10.045Z,9.60
2017-11-08T15:01:39.097Z,9.40
2017-11-08T15:04:07.398Z,9.40
2017-11-08T15:06:35.707Z,9.30
2017-11-08T15:09:04.032Z,9.40
2017-11-08T15:11:36.290Z,9.30
2017-11-08T15:14:04.573Z,9.20
2017-11-08T15:16:32.838Z,9.30
2017-11-08T15:19:01.131Z,9.20
2017-11-08T15:21:29.470Z,9.20
2017-11-08T15:23:57.823Z,9.20
2017-11-08T15:26:26.074Z,9.20
2017-11-08T15:28:54.389Z,9.20
2017-11-08T15:31:22.659Z,9.20
2017-11-08T15:33:51.725Z,9.20
2017-11-08T15:36:20.018Z,9.20
2017-11-08T15:38:48.289Z,9.30
2017-11-08T15:41:19.423Z,9.20
2017-11-08T15:43:47.709Z,9.30
2017-11-08T15:46:15.990Z,9.20
2017-11-08T15:48:44.414Z,9.20
2017-11-08T15:51:12.672Z,9.30
2017-11-08T15:53:41.842Z,8.90
2017-11-08T15:56:10.111Z,8.90
2017-11-08T15:58:39.387Z,8.90
2017-11-08T16:01:07.678Z,8.80
2017-11-08T16:03:35.966Z,8.80
2017-11-08T16:06:05.008Z,8.80
2017-11-08T16:08:33.270Z,8.80
2017-11-08T16:11:03.257Z,8.60
2017-11-08T16:13:31.550Z,8.60
2017-11-08T16:15:59.835Z,8.70
2017-11-08T16:18:28.922Z,8.60
2017-11-08T16:20:57.983Z,8.60
2017-11-08T16:23:28.029Z,8.60
2017-11-08T16:25:56.318Z,8.60
2017-11-08T16:28:25.405Z,8.50
2017-11-08T16:30:54.546Z,8.50
2017-11-08T16:33:22.860Z,8.50
2017-11-08T16:35:51.136Z,8.40
2017-11-08T16:38:19.406Z,8.50
2017-11-08T16:40:47.694Z,8.50
2017-11-08T16:43:15.959Z,8.60
2017-11-08T16:45:44.246Z,8.50
2017-11-08T16:48:12.520Z,8.40
2017-11-08T16:50:41.311Z,8.40
2017-11-08T16:53:09.566Z,8.40
2017-11-08T16:55:37.877Z,8.50
2017-11-08T16:58:06.135Z,8.60
2017-11-08T17:00:34.409Z,8.70
2017-11-08T17:03:02.680Z,8.70
2017-11-08T17:05:30.978Z,8.80
2017-11-08T17:07:59.233Z,8.60
2017-11-08T17:10:27.629Z,8.70
2017-11-08T17:12:55.882Z,8.80
2017-11-08T17:15:24.188Z,8.70
2017-11-08T17:17:52.440Z,8.50
2017-11-08T17:20:20.741Z,8.50
2017-11-08T17:22:49.016Z,8.40
2017-11-08T17:25:17.306Z,8.50
2017-11-08T17:27:45.563Z,8.40
2017-11-08T17:30:13.898Z,8.50
2017-11-08T17:32:42.148Z,8.50
2017-11-08T17:35:11.212Z,8.50
2017-11-08T17:37:39.579Z,8.50
2017-11-08T17:40:07.849Z,8.40
2017-11-08T17:42:36.112Z,8.40
2017-11-08T17:45:04.389Z,8.40
2017-11-08T17:47:32.650Z,8.30
2017-11-08T17:50:01.707Z,8.20
2017-11-08T17:52:30.064Z,8.20
2017-11-08T17:54:58.354Z,8.20
2017-11-08T17:57:26.620Z,8.10
2017-11-08T17:59:54.998Z,8.00
2017-11-08T18:02:23.314Z,8.10
2017-11-08T18:04:52.417Z,8.10
2017-11-08T18:07:21.491Z,8.00
2017-11-08T18:09:49.763Z,8.00
2017-11-08T18:12:18.174Z,8.00
2017-11-08T18:14:46.449Z,8.00
2017-11-08T18:17:15.493Z,8.00
2017-11-08T18:19:43.857Z,8.00
2017-11-08T18:22:12.176Z,8.00
2017-11-08T18:24:40.546Z,7.90
2017-11-08T18:27:08.826Z,7.90
2017-11-08T18:29:37.078Z,8.00
2017-11-08T18:32:05.353Z,8.00
2017-11-08T18:34:33.647Z,8.00
2017-11-08T18:37:01.936Z,8.00
2017-11-08T18:39:30.210Z,8.10
2017-11-08T18:41:58.586Z,8.00
2017-11-08T18:44:26.844Z,8.10
2017-11-08T18:46:55.116Z,8.20
2017-11-08T18:49:23.382Z,8.20
2017-11-08T18:51:51.666Z,8.20
2017-11-08T18:54:19.929Z,8.20
2017-11-08T18:56:48.242Z,8.10
2017-11-08T18:59:16.514Z,8.20
2017-11-08T19:01:44.943Z,8.10
2017-11-08T19:04:13.974Z,8.10
2017-11-08T19:06:42.267Z,8.10
2017-11-08T19:09:10.553Z,8.00
2017-11-08T19:11:38.839Z,8.00
2017-11-08T19:14:07.109Z,8.10
2017-11-08T19:16:35.390Z,8.10
2017-11-08T19:19:03.656Z,8.10
2017-11-08T19:21:31.933Z,8.00
2017-11-08T19:24:00.210Z,8.00
2017-11-08T19:26:28.495Z,8.10
2017-11-08T19:28:56.754Z,8.00
2017-11-08T19:31:25.037Z,8.10
2017-11-08T19:33:53.323Z,8.00
2017-11-08T19:36:21.623Z,7.90
2017-11-08T19:38:49.887Z,7.80
2017-11-08T19:41:18.148Z,7.90
2017-11-08T19:43:46.421Z,7.90
2017-11-08T19:46:14.682Z,7.80
2017-11-08T19:48:43.077Z,7.80
2017-11-08T19:51:11.332Z,7.70
2017-11-08T19:53:39.720Z,7.80
2017-11-08T19:56:07.983Z,7.80
2017-11-08T19:58:36.401Z,7.80
2017-11-08T20:01:04.650Z,7.90
2017-11-08T20:03:32.961Z,7.80
2017-11-08T20:06:01.234Z,7.80
2017-11-08T20:08:29.526Z,7.90
2017-11-08T20:10:59.289Z,7.80
2017-11-08T20:13:27.622Z,7.80
2017-11-08T20:15:55.977Z,7.80
2017-11-08T20:18:24.561Z,7.80
2017-11-08T20:20:53.393Z,7.70
2017-11-08T20:23:22.470Z,7.80
2017-11-08T20:25:50.718Z,7.70
2017-11-08T20:28:19.000Z,7.80
2017-11-08T20:30:47.257Z,7.70
2017-11-08T20:33:15.545Z,7.80
2017-11-08T20:35:43.828Z,7.70
2017-11-08T20:38:12.206Z,7.80
2017-11-08T20:40:40.591Z,7.80
2017-11-08T20:43:08.974Z,7.80
2017-11-08T20:45:37.227Z,7.80
2017-11-08T20:48:05.628Z,7.70
2017-11-08T20:50:33.906Z,7.70
2017-11-08T20:53:02.209Z,7.80
2017-11-08T20:55:30.472Z,7.70
2017-11-08T20:57:58.752Z,7.70
2017-11-08T21:00:27.117Z,7.70
2017-11-08T21:02:55.401Z,7.70
2017-11-08T21:05:23.777Z,7.70
2017-11-08T21:07:52.060Z,7.70
2017-11-08T21:10:20.317Z,7.80
2017-11-08T21:12:48.811Z,7.80
2017-11-08T21:15:17.093Z,7.70
2017-11-08T21:17:45.381Z,7.70
2017-11-08T21:20:13.676Z,7.70
2017-11-08T21:22:42.767Z,7.60
2017-11-08T21:25:11.804Z,7.60
2017-11-08T21:27:40.079Z,7.60
2017-11-08T21:30:08.349Z,7.70
2017-11-08T21:32:36.636Z,7.80
2017-11-08T21:35:04.898Z,7.70
2017-11-08T21:37:33.181Z,8.00
2017-11-08T21:40:01.441Z,8.10
2017-11-08T21:42:29.713Z,8.00
2017-11-08T21:44:58.050Z,8.00
2017-11-08T21:47:27.082Z,8.00
2017-11-08T21:49:56.135Z,8.20
2017-11-08T21:52:24.501Z,8.20
2017-11-08T21:54:52.782Z,8.30
2017-11-08T21:57:21.058Z,8.40
2017-11-08T21:59:49.464Z,8.40
2017-11-08T22:02:17.730Z,8.30
2017-11-08T22:04:46.012Z,8.20
2017-11-08T22:07:15.795Z,8.30
2017-11-08T22:09:44.082Z,8.30
2017-11-08T22:12:12.353Z,8.30
2017-11-08T22:14:40.628Z,8.30
2017-11-08T22:17:08.892Z,8.30
2017-11-08T22:19:37.179Z,8.30
2017-11-08T22:22:05.448Z,8.40
2017-11-08T22:24:40.797Z,8.40
2017-11-08T22:27:10.161Z,8.50
2017-11-08T22:29:39.416Z,8.40
2017-11-08T22:32:07.723Z,8.40
2017-11-08T22:34:38.709Z,8.40
2017-11-08T22:37:06.978Z,8.40
2017-11-08T22:39:35.330Z,8.20
2017-11-08T22:42:03.739Z,8.20
2017-11-08T22:44:32.032Z,8.10
2017-11-08T22:47:00.338Z,8.10
2017-11-08T22:49:29.417Z,8.20
2017-11-08T22:51:57.721Z,8.20
2017-11-08T22:54:26.185Z,8.20
2017-11-08T22:56:56.277Z,8.20
2017-11-08T22:59:24.568Z,8.30
2017-11-08T23:01:52.856Z,8.40
2017-11-08T23:04:21.196Z,8.40
2017-11-08T23:06:49.516Z,8.30
2017-11-08T23:09:17.765Z,8.50
2017-11-08T23:11:46.069Z,8.50
2017-11-08T23:14:14.448Z,8.60
2017-11-08T23:16:42.834Z,8.60
2017-11-08T23:19:11.093Z,8.60
2017-11-08T23:21:39.436Z,8.60
2017-11-08T23:24:07.698Z,8.60
2017-11-08T23:26:36.759Z,8.70
2017-11-08T23:29:05.026Z,8.70
2017-11-08T23:31:33.302Z,8.60
2017-11-08T23:34:01.586Z,8.70
2017-11-08T23:36:29.888Z,8.60
2017-11-08T23:38:59.067Z,8.60
2017-11-08T23:41:27.339Z,8.70
2017-11-08T23:43:55.613Z,8.60
2017-11-08T23:46:23.902Z,8.60
2017-11-08T23:48:52.169Z,8.70
2017-11-08T23:51:20.453Z,8.70
2017-11-08T23:53:48.708Z,8.60
2017-11-08T23:56:17.103Z,8.70
2017-11-08T23:58:45.402Z,8.70
